sensor_id;sensor_type;location;lat;lon;timestamp;P1;durP1;ratioP1;P2;durP2;ratioP2
4732;SDS011;2380;53.668;10.008;2023-05-07T00:00:18;17.70;;;10.13;;
4732;SDS011;2380;53.668;10.008;2023-05-07T00:02:47;22.03;;;12.07;;
4732;SDS011;2380;53.668;10.008;2023-05-07T00:05:20;19.00;;;11.60;;
4732;SDS011;2380;53.668;10.008;2023-05-07T00:07:49;22.83;;;12.40;;
4732;SDS011;2380;53.668;10.008;2023-05-07T00:10:19;23.23;;;12.90;;
4732;SDS011;2380;53.668;10.008;2023-05-07T00:12:48;15.70;;;9.87;;
4732;SDS011;2380;53.668;10.008;2023-05-07T00:15:18;18.83;;;11.20;;
4732;SDS011;2380;53.668;10.008;2023-05-07T00:17:50;14.93;;;9.50;;
4732;SDS011;2380;53.668;10.008;2023-05-07T00:20:22;18.33;;;10.30;;
4732;SDS011;2380;53.668;10.008;2023-05-07T00:22:52;21.13;;;11.90;;
4732;SDS011;2380;53.668;10.008;2023-05-07T00:25:21;20.43;;;10.83;;
4732;SDS011;2380;53.668;10.008;2023-05-07T00:27:51;25.77;;;13.30;;
4732;SDS011;2380;53.668;10.008;2023-05-07T00:30:20;19.77;;;11.00;;
4732;SDS011;2380;53.668;10.008;2023-05-07T00:32:50;17.70;;;11.07;;
4732;SDS011;2380;53.668;10.008;2023-05-07T00:35:23;19.83;;;11.37;;
4732;SDS011;2380;53.668;10.008;2023-05-07T00:37:52;18.57;;;11.47;;
4732;SDS011;2380;53.668;10.008;2023-05-07T00:40:22;22.27;;;12.60;;
4732;SDS011;2380;53.668;10.008;2023-05-07T00:42:51;18.90;;;10.83;;
4732;SDS011;2380;53.668;10.008;2023-05-07T00:45:25;22.63;;;12.97;;
4732;SDS011;2380;53.668;10.008;2023-05-07T00:47:56;16.60;;;10.00;;
4732;SDS011;2380;53.668;10.008;2023-05-07T00:50:30;94.67;;;42.70;;
4732;SDS011;2380;53.668;10.008;2023-05-07T00:53:00;40.63;;;21.03;;
4732;SDS011;2380;53.668;10.008;2023-05-07T00:55:30;17.50;;;10.57;;
4732;SDS011;2380;53.668;10.008;2023-05-07T00:57:59;17.63;;;10.93;;
4732;SDS011;2380;53.668;10.008;2023-05-07T01:00:29;25.23;;;13.63;;
4732;SDS011;2380;53.668;10.008;2023-05-07T01:02:59;20.30;;;11.30;;
4732;SDS011;2380;53.668;10.008;2023-05-07T01:05:31;20.97;;;10.67;;
4732;SDS011;2380;53.668;10.008;2023-05-07T01:08:02;16.00;;;9.90;;
4732;SDS011;2380;53.668;10.008;2023-05-07T01:10:32;17.43;;;10.67;;
4732;SDS011;2380;53.668;10.008;2023-05-07T01:13:01;16.60;;;10.10;;
4732;SDS011;2380;53.668;10.008;2023-05-07T01:15:31;16.80;;;9.80;;
4732;SDS011;2380;53.668;10.008;2023-05-07T01:18:01;16.13;;;9.60;;
4732;SDS011;2380;53.668;10.008;2023-05-07T01:20:33;15.30;;;9.70;;
4732;SDS011;2380;53.668;10.008;2023-05-07T01:23:06;31.13;;;16.93;;
4732;SDS011;2380;53.668;10.008;2023-05-07T01:25:36;19.33;;;11.47;;
4732;SDS011;2380;53.668;10.008;2023-05-07T01:28:06;18.83;;;10.60;;
4732;SDS011;2380;53.668;10.008;2023-05-07T01:30:35;18.57;;;10.97;;
4732;SDS011;2380;53.668;10.008;2023-05-07T01:33:06;42.83;;;20.83;;
4732;SDS011;2380;53.668;10.008;2023-05-07T01:35:39;20.77;;;11.50;;
4732;SDS011;2380;53.668;10.008;2023-05-07T01:38:13;16.60;;;10.33;;
4732;SDS011;2380;53.668;10.008;2023-05-07T01:40:43;16.60;;;9.57;;
4732;SDS011;2380;53.668;10.008;2023-05-07T01:43:13;16.97;;;9.17;;
4732;SDS011;2380;53.668;10.008;2023-05-07T01:45:43;16.33;;;9.23;;
4732;SDS011;2380;53.668;10.008;2023-05-07T01:48:15;15.70;;;8.40;;
4732;SDS011;2380;53.668;10.008;2023-05-07T01:50:44;36.77;;;18.03;;
4732;SDS011;2380;53.668;10.008;2023-05-07T01:53:17;18.27;;;10.00;;
4732;SDS011;2380;53.668;10.008;2023-05-07T01:55:46;20.47;;;11.20;;
4732;SDS011;2380;53.668;10.008;2023-05-07T01:58:16;45.30;;;21.00;;
4732;SDS011;2380;53.668;10.008;2023-05-07T02:00:45;16.10;;;9.10;;
4732;SDS011;2380;53.668;10.008;2023-05-07T02:03:15;14.97;;;8.50;;
4732;SDS011;2380;53.668;10.008;2023-05-07T02:05:45;19.50;;;10.40;;
4732;SDS011;2380;53.668;10.008;2023-05-07T02:08:17;16.27;;;9.33;;
4732;SDS011;2380;53.668;10.008;2023-05-07T02:10:46;12.10;;;7.47;;
4732;SDS011;2380;53.668;10.008;2023-05-07T02:13:17;16.93;;;9.13;;
4732;SDS011;2380;53.668;10.008;2023-05-07T02:15:48;12.17;;;7.80;;
4732;SDS011;2380;53.668;10.008;2023-05-07T02:18:18;14.30;;;8.60;;
4732;SDS011;2380;53.668;10.008;2023-05-07T02:20:47;14.63;;;9.17;;
4732;SDS011;2380;53.668;10.008;2023-05-07T02:23:22;15.70;;;9.00;;
4732;SDS011;2380;53.668;10.008;2023-05-07T02:25:51;14.37;;;8.53;;
4732;SDS011;2380;53.668;10.008;2023-05-07T02:28:21;19.13;;;9.43;;
4732;SDS011;2380;53.668;10.008;2023-05-07T02:30:50;15.77;;;9.10;;
4732;SDS011;2380;53.668;10.008;2023-05-07T02:33:24;16.10;;;7.97;;
4732;SDS011;2380;53.668;10.008;2023-05-07T02:35:54;20.47;;;11.10;;
4732;SDS011;2380;53.668;10.008;2023-05-07T02:38:26;15.60;;;8.77;;
4732;SDS011;2380;53.668;10.008;2023-05-07T02:40:56;15.90;;;9.20;;
4732;SDS011;2380;53.668;10.008;2023-05-07T02:43:25;15.00;;;8.23;;
4732;SDS011;2380;53.668;10.008;2023-05-07T02:46:02;16.70;;;9.30;;
4732;SDS011;2380;53.668;10.008;2023-05-07T02:48:32;17.77;;;9.97;;
4732;SDS011;2380;53.668;10.008;2023-05-07T02:51:02;15.67;;;9.10;;
4732;SDS011;2380;53.668;10.008;2023-05-07T02:53:35;18.07;;;10.60;;
4732;SDS011;2380;53.668;10.008;2023-05-07T02:56:04;14.50;;;8.83;;
4732;SDS011;2380;53.668;10.008;2023-05-07T02:58:35;15.30;;;8.93;;
4732;SDS011;2380;53.668;10.008;2023-05-07T03:01:05;15.20;;;8.97;;
4732;SDS011;2380;53.668;10.008;2023-05-07T03:03:35;14.93;;;8.80;;
4732;SDS011;2380;53.668;10.008;2023-05-07T03:06:05;24.83;;;13.10;;
4732;SDS011;2380;53.668;10.008;2023-05-07T03:08:38;13.87;;;8.63;;
4732;SDS011;2380;53.668;10.008;2023-05-07T03:11:07;18.00;;;9.70;;
4732;SDS011;2380;53.668;10.008;2023-05-07T03:13:37;14.70;;;8.87;;
4732;SDS011;2380;53.668;10.008;2023-05-07T03:16:06;16.30;;;8.30;;
4732;SDS011;2380;53.668;10.008;2023-05-07T03:18:36;17.00;;;9.60;;
4732;SDS011;2380;53.668;10.008;2023-05-07T03:21:06;69.03;;;31.50;;
4732;SDS011;2380;53.668;10.008;2023-05-07T03:23:38;17.00;;;9.20;;
4732;SDS011;2380;53.668;10.008;2023-05-07T03:26:08;19.23;;;11.73;;
4732;SDS011;2380;53.668;10.008;2023-05-07T03:28:37;14.70;;;9.33;;
4732;SDS011;2380;53.668;10.008;2023-05-07T03:31:07;15.97;;;8.43;;
4732;SDS011;2380;53.668;10.008;2023-05-07T03:33:38;16.27;;;9.63;;
4732;SDS011;2380;53.668;10.008;2023-05-07T03:36:18;17.47;;;9.17;;
4732;SDS011;2380;53.668;10.008;2023-05-07T03:38:50;17.93;;;10.53;;
4732;SDS011;2380;53.668;10.008;2023-05-07T03:41:19;15.23;;;9.83;;
4732;SDS011;2380;53.668;10.008;2023-05-07T03:43:49;16.23;;;9.40;;
4732;SDS011;2380;53.668;10.008;2023-05-07T03:46:19;13.50;;;8.60;;
4732;SDS011;2380;53.668;10.008;2023-05-07T03:48:48;17.00;;;10.40;;
4732;SDS011;2380;53.668;10.008;2023-05-07T03:51:18;16.93;;;9.83;;
4732;SDS011;2380;53.668;10.008;2023-05-07T03:53:50;15.73;;;9.40;;
4732;SDS011;2380;53.668;10.008;2023-05-07T03:56:20;17.43;;;10.00;;
4732;SDS011;2380;53.668;10.008;2023-05-07T03:58:53;16.17;;;9.00;;
4732;SDS011;2380;53.668;10.008;2023-05-07T04:01:22;15.60;;;9.33;;
4732;SDS011;2380;53.668;10.008;2023-05-07T04:03:52;16.03;;;10.00;;
4732;SDS011;2380;53.668;10.008;2023-05-07T04:06:22;20.73;;;11.40;;
4732;SDS011;2380;53.668;10.008;2023-05-07T04:08:54;13.37;;;8.60;;
4732;SDS011;2380;53.668;10.008;2023-05-07T04:11:24;14.67;;;9.20;;
4732;SDS011;2380;53.668;10.008;2023-05-07T04:13:54;12.90;;;8.33;;
4732;SDS011;2380;53.668;10.008;2023-05-07T04:16:23;16.03;;;9.27;;
4732;SDS011;2380;53.668;10.008;2023-05-07T04:18:53;16.80;;;10.30;;
4732;SDS011;2380;53.668;10.008;2023-05-07T04:21:22;16.43;;;8.97;;
4732;SDS011;2380;53.668;10.008;2023-05-07T04:23:55;15.20;;;8.83;;
4732;SDS011;2380;53.668;10.008;2023-05-07T04:26:25;15.90;;;9.20;;
4732;SDS011;2380;53.668;10.008;2023-05-07T04:28:54;18.53;;;9.23;;
4732;SDS011;2380;53.668;10.008;2023-05-07T04:31:25;16.43;;;9.70;;
4732;SDS011;2380;53.668;10.008;2023-05-07T04:33:55;13.33;;;8.07;;
4732;SDS011;2380;53.668;10.008;2023-05-07T04:36:24;12.57;;;7.70;;
4732;SDS011;2380;53.668;10.008;2023-05-07T04:38:58;15.30;;;8.30;;
4732;SDS011;2380;53.668;10.008;2023-05-07T04:41:27;73.03;;;36.07;;
4732;SDS011;2380;53.668;10.008;2023-05-07T04:43:59;31.03;;;17.47;;
4732;SDS011;2380;53.668;10.008;2023-05-07T04:46:30;33.47;;;17.67;;
4732;SDS011;2380;53.668;10.008;2023-05-07T04:49:00;24.03;;;11.50;;
4732;SDS011;2380;53.668;10.008;2023-05-07T04:51:29;13.87;;;7.87;;
4732;SDS011;2380;53.668;10.008;2023-05-07T04:54:01;19.40;;;10.97;;
4732;SDS011;2380;53.668;10.008;2023-05-07T04:56:31;17.33;;;9.77;;
4732;SDS011;2380;53.668;10.008;2023-05-07T04:59:00;12.90;;;7.67;;
4732;SDS011;2380;53.668;10.008;2023-05-07T05:01:30;14.77;;;8.87;;
4732;SDS011;2380;53.668;10.008;2023-05-07T05:04:00;14.90;;;7.03;;
4732;SDS011;2380;53.668;10.008;2023-05-07T05:06:30;11.30;;;7.10;;
4732;SDS011;2380;53.668;10.008;2023-05-07T05:09:02;12.30;;;7.57;;
4732;SDS011;2380;53.668;10.008;2023-05-07T05:11:32;15.03;;;7.80;;
4732;SDS011;2380;53.668;10.008;2023-05-07T05:14:01;16.67;;;9.37;;
4732;SDS011;2380;53.668;10.008;2023-05-07T05:16:31;18.20;;;9.83;;
4732;SDS011;2380;53.668;10.008;2023-05-07T05:19:01;12.23;;;7.33;;
4732;SDS011;2380;53.668;10.008;2023-05-07T05:21:31;43.03;;;18.27;;
4732;SDS011;2380;53.668;10.008;2023-05-07T05:24:03;16.33;;;9.17;;
4732;SDS011;2380;53.668;10.008;2023-05-07T05:26:33;10.80;;;6.43;;
4732;SDS011;2380;53.668;10.008;2023-05-07T05:29:03;16.07;;;8.70;;
4732;SDS011;2380;53.668;10.008;2023-05-07T05:31:33;12.70;;;7.70;;
4732;SDS011;2380;53.668;10.008;2023-05-07T05:34:02;10.20;;;6.67;;
4732;SDS011;2380;53.668;10.008;2023-05-07T05:36:32;10.90;;;6.57;;
4732;SDS011;2380;53.668;10.008;2023-05-07T05:39:04;14.40;;;8.10;;
4732;SDS011;2380;53.668;10.008;2023-05-07T05:41:34;11.33;;;7.30;;
4732;SDS011;2380;53.668;10.008;2023-05-07T05:44:07;13.67;;;7.63;;
4732;SDS011;2380;53.668;10.008;2023-05-07T05:46:36;16.00;;;8.67;;
4732;SDS011;2380;53.668;10.008;2023-05-07T05:49:06;13.27;;;7.47;;
4732;SDS011;2380;53.668;10.008;2023-05-07T05:51:35;12.40;;;7.00;;
4732;SDS011;2380;53.668;10.008;2023-05-07T05:54:07;11.30;;;7.50;;
4732;SDS011;2380;53.668;10.008;2023-05-07T05:56:37;11.70;;;7.07;;
4732;SDS011;2380;53.668;10.008;2023-05-07T05:59:07;15.20;;;7.83;;
4732;SDS011;2380;53.668;10.008;2023-05-07T06:01:36;11.70;;;7.07;;
4732;SDS011;2380;53.668;10.008;2023-05-07T06:04:06;8.90;;;6.23;;
4732;SDS011;2380;53.668;10.008;2023-05-07T06:06:36;11.47;;;7.33;;
4732;SDS011;2380;53.668;10.008;2023-05-07T06:09:08;15.10;;;8.20;;
4732;SDS011;2380;53.668;10.008;2023-05-07T06:11:38;12.47;;;7.60;;
4732;SDS011;2380;53.668;10.008;2023-05-07T06:14:07;13.23;;;7.50;;
4732;SDS011;2380;53.668;10.008;2023-05-07T06:16:37;13.77;;;6.90;;
4732;SDS011;2380;53.668;10.008;2023-05-07T06:19:06;15.00;;;7.83;;
4732;SDS011;2380;53.668;10.008;2023-05-07T06:21:36;13.33;;;7.37;;
4732;SDS011;2380;53.668;10.008;2023-05-07T06:24:08;9.47;;;6.60;;
4732;SDS011;2380;53.668;10.008;2023-05-07T06:26:38;14.27;;;7.90;;
4732;SDS011;2380;53.668;10.008;2023-05-07T06:29:08;11.43;;;6.90;;
4732;SDS011;2380;53.668;10.008;2023-05-07T06:31:37;10.60;;;5.93;;
4732;SDS011;2380;53.668;10.008;2023-05-07T06:34:07;12.00;;;7.10;;
4732;SDS011;2380;53.668;10.008;2023-05-07T06:36:40;11.23;;;6.60;;
4732;SDS011;2380;53.668;10.008;2023-05-07T06:39:12;11.00;;;6.80;;
4732;SDS011;2380;53.668;10.008;2023-05-07T06:41:42;11.60;;;7.33;;
4732;SDS011;2380;53.668;10.008;2023-05-07T06:44:11;13.70;;;7.80;;
4732;SDS011;2380;53.668;10.008;2023-05-07T06:46:41;10.30;;;5.77;;
4732;SDS011;2380;53.668;10.008;2023-05-07T06:49:11;16.30;;;8.70;;
4732;SDS011;2380;53.668;10.008;2023-05-07T06:51:41;12.30;;;7.20;;
4732;SDS011;2380;53.668;10.008;2023-05-07T06:54:13;8.20;;;5.50;;
4732;SDS011;2380;53.668;10.008;2023-05-07T06:56:43;16.97;;;10.07;;
4732;SDS011;2380;53.668;10.008;2023-05-07T06:59:12;13.77;;;7.40;;
4732;SDS011;2380;53.668;10.008;2023-05-07T07:01:42;19.17;;;10.70;;
4732;SDS011;2380;53.668;10.008;2023-05-07T07:04:11;13.10;;;7.63;;
4732;SDS011;2380;53.668;10.008;2023-05-07T07:06:41;9.53;;;6.47;;
4732;SDS011;2380;53.668;10.008;2023-05-07T07:09:13;10.73;;;6.03;;
4732;SDS011;2380;53.668;10.008;2023-05-07T07:11:43;12.50;;;7.23;;
4732;SDS011;2380;53.668;10.008;2023-05-07T07:14:12;8.87;;;5.60;;
4732;SDS011;2380;53.668;10.008;2023-05-07T07:16:42;12.23;;;6.30;;
4732;SDS011;2380;53.668;10.008;2023-05-07T07:19:13;13.20;;;7.33;;
4732;SDS011;2380;53.668;10.008;2023-05-07T07:21:43;10.40;;;5.90;;
4732;SDS011;2380;53.668;10.008;2023-05-07T07:24:16;13.77;;;7.80;;
4732;SDS011;2380;53.668;10.008;2023-05-07T07:26:48;9.70;;;6.03;;
4732;SDS011;2380;53.668;10.008;2023-05-07T07:29:17;11.80;;;6.20;;
4732;SDS011;2380;53.668;10.008;2023-05-07T07:31:48;8.33;;;5.87;;
4732;SDS011;2380;53.668;10.008;2023-05-07T07:34:18;8.67;;;5.97;;
4732;SDS011;2380;53.668;10.008;2023-05-07T07:36:47;15.10;;;8.83;;
4732;SDS011;2380;53.668;10.008;2023-05-07T07:39:19;12.43;;;5.97;;
4732;SDS011;2380;53.668;10.008;2023-05-07T07:41:49;10.30;;;6.13;;
4732;SDS011;2380;53.668;10.008;2023-05-07T07:44:19;10.00;;;5.93;;
4732;SDS011;2380;53.668;10.008;2023-05-07T07:46:48;11.27;;;6.10;;
4732;SDS011;2380;53.668;10.008;2023-05-07T07:49:18;8.77;;;5.40;;
4732;SDS011;2380;53.668;10.008;2023-05-07T07:51:47;10.63;;;6.60;;
4732;SDS011;2380;53.668;10.008;2023-05-07T07:54:20;10.53;;;6.53;;
4732;SDS011;2380;53.668;10.008;2023-05-07T07:56:49;8.70;;;5.87;;
4732;SDS011;2380;53.668;10.008;2023-05-07T07:59:19;10.13;;;6.00;;
4732;SDS011;2380;53.668;10.008;2023-05-07T08:01:48;7.87;;;5.10;;
4732;SDS011;2380;53.668;10.008;2023-05-07T08:04:20;8.07;;;5.13;;
4732;SDS011;2380;53.668;10.008;2023-05-07T08:06:50;10.23;;;6.00;;
4732;SDS011;2380;53.668;10.008;2023-05-07T08:09:23;9.60;;;5.30;;
4732;SDS011;2380;53.668;10.008;2023-05-07T08:11:55;8.93;;;5.23;;
4732;SDS011;2380;53.668;10.008;2023-05-07T08:14:24;9.50;;;5.47;;
4732;SDS011;2380;53.668;10.008;2023-05-07T08:16:54;8.47;;;5.70;;
4732;SDS011;2380;53.668;10.008;2023-05-07T08:19:24;11.90;;;6.70;;
4732;SDS011;2380;53.668;10.008;2023-05-07T08:21:54;10.00;;;6.40;;
4732;SDS011;2380;53.668;10.008;2023-05-07T08:24:26;9.67;;;5.43;;
4732;SDS011;2380;53.668;10.008;2023-05-07T08:26:55;17.80;;;8.70;;
4732;SDS011;2380;53.668;10.008;2023-05-07T08:29:25;10.20;;;5.93;;
4732;SDS011;2380;53.668;10.008;2023-05-07T08:31:54;13.67;;;5.77;;
4732;SDS011;2380;53.668;10.008;2023-05-07T08:34:24;8.07;;;5.07;;
4732;SDS011;2380;53.668;10.008;2023-05-07T08:36:54;6.70;;;4.67;;
4732;SDS011;2380;53.668;10.008;2023-05-07T08:39:26;15.53;;;8.13;;
4732;SDS011;2380;53.668;10.008;2023-05-07T08:41:56;10.27;;;6.17;;
4732;SDS011;2380;53.668;10.008;2023-05-07T08:44:29;10.03;;;5.63;;
4732;SDS011;2380;53.668;10.008;2023-05-07T08:47:02;8.73;;;5.60;;
4732;SDS011;2380;53.668;10.008;2023-05-07T08:49:32;8.73;;;5.40;;
4732;SDS011;2380;53.668;10.008;2023-05-07T08:52:02;11.23;;;5.13;;
4732;SDS011;2380;53.668;10.008;2023-05-07T08:54:38;9.20;;;5.60;;
4732;SDS011;2380;53.668;10.008;2023-05-07T08:57:08;10.50;;;5.83;;
4732;SDS011;2380;53.668;10.008;2023-05-07T08:59:37;9.20;;;5.40;;
4732;SDS011;2380;53.668;10.008;2023-05-07T09:02:07;7.93;;;5.40;;
4732;SDS011;2380;53.668;10.008;2023-05-07T09:04:38;8.33;;;5.33;;
4732;SDS011;2380;53.668;10.008;2023-05-07T09:07:08;8.10;;;5.40;;
4732;SDS011;2380;53.668;10.008;2023-05-07T09:09:40;10.43;;;6.13;;
4732;SDS011;2380;53.668;10.008;2023-05-07T09:12:09;13.97;;;7.67;;
4732;SDS011;2380;53.668;10.008;2023-05-07T09:14:39;12.23;;;5.70;;
4732;SDS011;2380;53.668;10.008;2023-05-07T09:17:08;7.57;;;4.47;;
4732;SDS011;2380;53.668;10.008;2023-05-07T09:19:38;13.60;;;5.30;;
4732;SDS011;2380;53.668;10.008;2023-05-07T09:22:07;8.10;;;5.73;;
4732;SDS011;2380;53.668;10.008;2023-05-07T09:24:40;16.77;;;5.90;;
4732;SDS011;2380;53.668;10.008;2023-05-07T09:27:09;6.80;;;4.67;;
4732;SDS011;2380;53.668;10.008;2023-05-07T09:29:39;9.90;;;4.80;;
4732;SDS011;2380;53.668;10.008;2023-05-07T09:32:09;7.60;;;5.27;;
4732;SDS011;2380;53.668;10.008;2023-05-07T09:34:39;8.10;;;4.70;;
4732;SDS011;2380;53.668;10.008;2023-05-07T09:37:10;8.43;;;4.50;;
4732;SDS011;2380;53.668;10.008;2023-05-07T09:39:45;8.93;;;4.20;;
4732;SDS011;2380;53.668;10.008;2023-05-07T09:42:16;5.40;;;4.03;;
4732;SDS011;2380;53.668;10.008;2023-05-07T09:44:52;8.17;;;4.60;;
4732;SDS011;2380;53.668;10.008;2023-05-07T09:47:23;7.63;;;4.97;;
4732;SDS011;2380;53.668;10.008;2023-05-07T09:49:55;6.77;;;4.30;;
4732;SDS011;2380;53.668;10.008;2023-05-07T09:52:25;8.07;;;5.10;;
4732;SDS011;2380;53.668;10.008;2023-05-07T09:55:02;7.93;;;4.70;;
4732;SDS011;2380;53.668;10.008;2023-05-07T09:57:32;14.23;;;7.63;;
4732;SDS011;2380;53.668;10.008;2023-05-07T10:00:03;5.80;;;4.17;;
4732;SDS011;2380;53.668;10.008;2023-05-07T10:02:35;7.77;;;4.77;;
4732;SDS011;2380;53.668;10.008;2023-05-07T10:05:08;9.40;;;4.33;;
4732;SDS011;2380;53.668;10.008;2023-05-07T10:07:38;9.97;;;4.73;;
4732;SDS011;2380;53.668;10.008;2023-05-07T10:10:10;6.30;;;4.60;;
4732;SDS011;2380;53.668;10.008;2023-05-07T10:12:40;10.43;;;6.90;;
4732;SDS011;2380;53.668;10.008;2023-05-07T10:15:10;9.80;;;5.93;;
4732;SDS011;2380;53.668;10.008;2023-05-07T10:17:40;6.73;;;4.80;;
4732;SDS011;2380;53.668;10.008;2023-05-07T10:20:10;6.93;;;4.57;;
4732;SDS011;2380;53.668;10.008;2023-05-07T10:22:41;6.60;;;4.90;;
4732;SDS011;2380;53.668;10.008;2023-05-07T10:25:16;8.37;;;5.03;;
4732;SDS011;2380;53.668;10.008;2023-05-07T10:27:48;11.27;;;5.20;;
4732;SDS011;2380;53.668;10.008;2023-05-07T10:30:21;6.70;;;4.30;;
4732;SDS011;2380;53.668;10.008;2023-05-07T10:32:59;8.03;;;5.07;;
4732;SDS011;2380;53.668;10.008;2023-05-07T10:35:39;5.63;;;3.80;;
4732;SDS011;2380;53.668;10.008;2023-05-07T10:38:10;8.30;;;4.23;;
4732;SDS011;2380;53.668;10.008;2023-05-07T10:40:42;10.20;;;4.57;;
4732;SDS011;2380;53.668;10.008;2023-05-07T10:43:13;8.47;;;3.70;;
4732;SDS011;2380;53.668;10.008;2023-05-07T10:45:43;7.83;;;4.27;;
4732;SDS011;2380;53.668;10.008;2023-05-07T10:48:13;7.50;;;4.40;;
4732;SDS011;2380;53.668;10.008;2023-05-07T10:53:48;7.23;;;4.43;;
4732;SDS011;2380;53.668;10.008;2023-05-07T10:56:50;6.77;;;4.23;;
4732;SDS011;2380;53.668;10.008;2023-05-07T11:02:08;6.10;;;3.80;;
4732;SDS011;2380;53.668;10.008;2023-05-07T11:04:40;5.90;;;3.70;;
4732;SDS011;2380;53.668;10.008;2023-05-07T11:07:23;5.90;;;3.60;;
4732;SDS011;2380;53.668;10.008;2023-05-07T11:09:58;6.57;;;3.83;;
4732;SDS011;2380;53.668;10.008;2023-05-07T11:15:37;7.23;;;3.60;;
4732;SDS011;2380;53.668;10.008;2023-05-07T11:18:14;12.10;;;4.40;;
4732;SDS011;2380;53.668;10.008;2023-05-07T11:20:44;5.40;;;3.90;;
4732;SDS011;2380;53.668;10.008;2023-05-07T11:26:44;10.07;;;4.60;;
4732;SDS011;2380;53.668;10.008;2023-05-07T11:29:17;8.17;;;4.90;;
4732;SDS011;2380;53.668;10.008;2023-05-07T11:31:49;7.03;;;3.30;;
4732;SDS011;2380;53.668;10.008;2023-05-07T11:34:20;6.40;;;4.00;;
4732;SDS011;2380;53.668;10.008;2023-05-07T11:36:51;6.53;;;3.90;;
4732;SDS011;2380;53.668;10.008;2023-05-07T11:39:25;6.17;;;3.50;;
4732;SDS011;2380;53.668;10.008;2023-05-07T11:41:59;5.87;;;4.13;;
4732;SDS011;2380;53.668;10.008;2023-05-07T11:44:44;8.70;;;4.57;;
4732;SDS011;2380;53.668;10.008;2023-05-07T11:47:18;6.80;;;4.43;;
4732;SDS011;2380;53.668;10.008;2023-05-07T11:49:49;9.63;;;5.17;;
4732;SDS011;2380;53.668;10.008;2023-05-07T11:52:20;5.80;;;3.80;;
4732;SDS011;2380;53.668;10.008;2023-05-07T11:54:50;8.10;;;4.40;;
4732;SDS011;2380;53.668;10.008;2023-05-07T11:57:21;8.03;;;4.60;;
4732;SDS011;2380;53.668;10.008;2023-05-07T11:59:55;6.93;;;3.10;;
4732;SDS011;2380;53.668;10.008;2023-05-07T12:02:25;7.30;;;4.37;;
4732;SDS011;2380;53.668;10.008;2023-05-07T12:04:55;8.23;;;4.33;;
4732;SDS011;2380;53.668;10.008;2023-05-07T12:07:24;4.53;;;2.83;;
4732;SDS011;2380;53.668;10.008;2023-05-07T12:09:54;5.00;;;3.00;;
4732;SDS011;2380;53.668;10.008;2023-05-07T12:12:23;4.40;;;2.67;;
4732;SDS011;2380;53.668;10.008;2023-05-07T12:14:55;5.37;;;3.20;;
4732;SDS011;2380;53.668;10.008;2023-05-07T12:17:25;5.47;;;2.60;;
4732;SDS011;2380;53.668;10.008;2023-05-07T12:19:55;5.83;;;3.17;;
4732;SDS011;2380;53.668;10.008;2023-05-07T12:22:24;4.70;;;2.57;;
4732;SDS011;2380;53.668;10.008;2023-05-07T12:24:56;7.30;;;3.40;;
4732;SDS011;2380;53.668;10.008;2023-05-07T12:27:26;8.23;;;4.67;;
4732;SDS011;2380;53.668;10.008;2023-05-07T12:29:59;6.03;;;2.70;;
4732;SDS011;2380;53.668;10.008;2023-05-07T12:32:29;5.27;;;2.73;;
4732;SDS011;2380;53.668;10.008;2023-05-07T12:35:03;4.30;;;2.77;;
4732;SDS011;2380;53.668;10.008;2023-05-07T12:37:35;4.20;;;2.57;;
4732;SDS011;2380;53.668;10.008;2023-05-07T12:40:05;4.33;;;2.73;;
4732;SDS011;2380;53.668;10.008;2023-05-07T12:42:36;6.67;;;3.13;;
4732;SDS011;2380;53.668;10.008;2023-05-07T12:45:10;6.30;;;2.73;;
4732;SDS011;2380;53.668;10.008;2023-05-07T12:47:43;5.33;;;3.00;;
4732;SDS011;2380;53.668;10.008;2023-05-07T12:50:13;5.20;;;2.97;;
4732;SDS011;2380;53.668;10.008;2023-05-07T12:52:43;4.40;;;2.70;;
4732;SDS011;2380;53.668;10.008;2023-05-07T12:55:13;4.90;;;2.50;;
4732;SDS011;2380;53.668;10.008;2023-05-07T12:57:45;6.70;;;2.20;;
4732;SDS011;2380;53.668;10.008;2023-05-07T13:00:20;4.90;;;2.70;;
4732;SDS011;2380;53.668;10.008;2023-05-07T13:03:01;3.90;;;2.30;;
4732;SDS011;2380;53.668;10.008;2023-05-07T13:05:31;5.60;;;2.53;;
4732;SDS011;2380;53.668;10.008;2023-05-07T13:08:01;4.07;;;2.13;;
4732;SDS011;2380;53.668;10.008;2023-05-07T13:10:31;7.30;;;3.37;;
4732;SDS011;2380;53.668;10.008;2023-05-07T13:13:01;4.30;;;2.53;;
4732;SDS011;2380;53.668;10.008;2023-05-07T13:15:33;7.00;;;3.20;;
4732;SDS011;2380;53.668;10.008;2023-05-07T13:18:04;4.00;;;2.40;;
4732;SDS011;2380;53.668;10.008;2023-05-07T13:20:33;3.57;;;1.83;;
4732;SDS011;2380;53.668;10.008;2023-05-07T13:23:03;4.07;;;2.27;;
4732;SDS011;2380;53.668;10.008;2023-05-07T13:25:33;5.37;;;2.50;;
4732;SDS011;2380;53.668;10.008;2023-05-07T13:28:04;4.90;;;2.40;;
4732;SDS011;2380;53.668;10.008;2023-05-07T13:30:39;6.73;;;3.10;;
4732;SDS011;2380;53.668;10.008;2023-05-07T13:33:09;6.50;;;3.03;;
4732;SDS011;2380;53.668;10.008;2023-05-07T13:35:40;7.20;;;3.70;;
4732;SDS011;2380;53.668;10.008;2023-05-07T13:38:09;5.23;;;2.50;;
4732;SDS011;2380;53.668;10.008;2023-05-07T13:40:39;6.80;;;4.10;;
4732;SDS011;2380;53.668;10.008;2023-05-07T13:43:08;4.23;;;2.20;;
4732;SDS011;2380;53.668;10.008;2023-05-07T13:45:41;6.27;;;2.90;;
4732;SDS011;2380;53.668;10.008;2023-05-07T13:48:10;4.93;;;2.23;;
4732;SDS011;2380;53.668;10.008;2023-05-07T13:50:40;4.53;;;2.43;;
4732;SDS011;2380;53.668;10.008;2023-05-07T13:53:09;4.30;;;2.03;;
4732;SDS011;2380;53.668;10.008;2023-05-07T13:55:39;4.10;;;1.97;;
4732;SDS011;2380;53.668;10.008;2023-05-07T13:58:08;4.80;;;2.53;;
4732;SDS011;2380;53.668;10.008;2023-05-07T14:00:40;5.00;;;2.40;;
4732;SDS011;2380;53.668;10.008;2023-05-07T14:03:10;8.43;;;2.17;;
4732;SDS011;2380;53.668;10.008;2023-05-07T14:05:40;6.53;;;2.17;;
4732;SDS011;2380;53.668;10.008;2023-05-07T14:08:09;4.37;;;1.67;;
4732;SDS011;2380;53.668;10.008;2023-05-07T14:10:40;5.13;;;2.60;;
4732;SDS011;2380;53.668;10.008;2023-05-07T14:13:09;4.90;;;3.00;;
4732;SDS011;2380;53.668;10.008;2023-05-07T14:15:42;6.10;;;2.47;;
4732;SDS011;2380;53.668;10.008;2023-05-07T14:18:13;5.50;;;2.50;;
4732;SDS011;2380;53.668;10.008;2023-05-07T14:20:42;4.80;;;2.70;;
4732;SDS011;2380;53.668;10.008;2023-05-07T14:23:14;4.30;;;2.57;;
4732;SDS011;2380;53.668;10.008;2023-05-07T14:25:44;5.60;;;2.50;;
4732;SDS011;2380;53.668;10.008;2023-05-07T14:28:14;4.40;;;2.67;;
4732;SDS011;2380;53.668;10.008;2023-05-07T14:30:46;4.93;;;2.77;;
4732;SDS011;2380;53.668;10.008;2023-05-07T14:33:16;4.53;;;1.90;;
4732;SDS011;2380;53.668;10.008;2023-05-07T14:35:46;7.83;;;3.67;;
4732;SDS011;2380;53.668;10.008;2023-05-07T14:38:16;4.70;;;1.83;;
4732;SDS011;2380;53.668;10.008;2023-05-07T14:40:46;4.20;;;2.27;;
4732;SDS011;2380;53.668;10.008;2023-05-07T14:43:15;4.07;;;2.00;;
4732;SDS011;2380;53.668;10.008;2023-05-07T14:45:48;5.80;;;2.03;;
4732;SDS011;2380;53.668;10.008;2023-05-07T14:48:17;4.77;;;2.30;;
4732;SDS011;2380;53.668;10.008;2023-05-07T14:50:47;4.60;;;2.33;;
4732;SDS011;2380;53.668;10.008;2023-05-07T14:53:16;3.73;;;1.93;;
4732;SDS011;2380;53.668;10.008;2023-05-07T14:55:46;6.30;;;2.80;;
4732;SDS011;2380;53.668;10.008;2023-05-07T14:58:16;5.90;;;2.43;;
4732;SDS011;2380;53.668;10.008;2023-05-07T15:00:48;4.37;;;2.20;;
4732;SDS011;2380;53.668;10.008;2023-05-07T15:03:18;3.80;;;2.00;;
4732;SDS011;2380;53.668;10.008;2023-05-07T15:05:48;4.03;;;1.90;;
4732;SDS011;2380;53.668;10.008;2023-05-07T15:08:18;4.10;;;2.30;;
4732;SDS011;2380;53.668;10.008;2023-05-07T15:10:48;4.50;;;2.33;;
4732;SDS011;2380;53.668;10.008;2023-05-07T15:13:18;7.50;;;2.80;;
4732;SDS011;2380;53.668;10.008;2023-05-07T15:15:50;6.73;;;2.30;;
4732;SDS011;2380;53.668;10.008;2023-05-07T15:18:20;4.07;;;2.17;;
4732;SDS011;2380;53.668;10.008;2023-05-07T15:20:49;6.37;;;2.70;;
4732;SDS011;2380;53.668;10.008;2023-05-07T15:23:19;4.13;;;2.03;;